sensor_id;sensor_type;location;lat;lon;timestamp;P1;durP1;ratioP1;P2;durP2;ratioP2
70247;SDS011;57641;51.416;5.506;2023-01-24T00:00:48;20.73;;;10.98;;
70247;SDS011;57641;51.416;5.506;2023-01-24T00:03:14;23.88;;;10.88;;
70247;SDS011;57641;51.416;5.506;2023-01-24T00:05:44;23.23;;;10.52;;
70247;SDS011;57641;51.416;5.506;2023-01-24T00:08:11;20.40;;;10.20;;
70247;SDS011;57641;51.416;5.506;2023-01-24T00:10:39;22.50;;;10.45;;
70247;SDS011;57641;51.416;5.506;2023-01-24T00:13:06;23.95;;;11.05;;
70247;SDS011;57641;51.416;5.506;2023-01-24T00:15:32;17.75;;;9.55;;
70247;SDS011;57641;51.416;5.506;2023-01-24T00:17:58;19.85;;;9.88;;
70247;SDS011;57641;51.416;5.506;2023-01-24T00:20:24;20.55;;;9.90;;
70247;SDS011;57641;51.416;5.506;2023-01-24T00:22:50;17.95;;;9.48;;
70247;SDS011;57641;51.416;5.506;2023-01-24T00:25:16;19.02;;;10.27;;
70247;SDS011;57641;51.416;5.506;2023-01-24T00:27:42;22.17;;;9.98;;
70247;SDS011;57641;51.416;5.506;2023-01-24T00:30:08;18.80;;;8.68;;
70247;SDS011;57641;51.416;5.506;2023-01-24T00:32:36;24.27;;;11.02;;
70247;SDS011;57641;51.416;5.506;2023-01-24T00:35:02;20.45;;;9.90;;
70247;SDS011;57641;51.416;5.506;2023-01-24T00:37:28;19.02;;;9.30;;
70247;SDS011;57641;51.416;5.506;2023-01-24T00:39:54;19.67;;;9.43;;
70247;SDS011;57641;51.416;5.506;2023-01-24T00:42:19;20.95;;;9.57;;
70247;SDS011;57641;51.416;5.506;2023-01-24T00:44:45;17.80;;;9.18;;
70247;SDS011;57641;51.416;5.506;2023-01-24T00:47:11;18.38;;;9.20;;
70247;SDS011;57641;51.416;5.506;2023-01-24T00:49:37;19.73;;;9.15;;
70247;SDS011;57641;51.416;5.506;2023-01-24T00:52:03;20.52;;;9.95;;
70247;SDS011;57641;51.416;5.506;2023-01-24T00:54:29;19.67;;;9.70;;
70247;SDS011;57641;51.416;5.506;2023-01-24T00:56:55;16.75;;;8.93;;
70247;SDS011;57641;51.416;5.506;2023-01-24T00:59:24;17.88;;;8.98;;
70247;SDS011;57641;51.416;5.506;2023-01-24T01:01:51;19.85;;;9.48;;
70247;SDS011;57641;51.416;5.506;2023-01-24T01:04:17;21.45;;;9.48;;
70247;SDS011;57641;51.416;5.506;2023-01-24T01:06:43;18.85;;;9.43;;
70247;SDS011;57641;51.416;5.506;2023-01-24T01:09:13;16.00;;;7.95;;
70247;SDS011;57641;51.416;5.506;2023-01-24T01:11:39;18.95;;;8.68;;
70247;SDS011;57641;51.416;5.506;2023-01-24T01:14:07;21.83;;;9.50;;
70247;SDS011;57641;51.416;5.506;2023-01-24T01:16:35;16.38;;;8.20;;
70247;SDS011;57641;51.416;5.506;2023-01-24T01:19:09;16.20;;;8.18;;
70247;SDS011;57641;51.416;5.506;2023-01-24T01:21:34;18.48;;;8.35;;
70247;SDS011;57641;51.416;5.506;2023-01-24T01:24:04;18.65;;;8.45;;
70247;SDS011;57641;51.416;5.506;2023-01-24T01:26:36;18.77;;;9.45;;
70247;SDS011;57641;51.416;5.506;2023-01-24T01:29:02;17.50;;;8.70;;
70247;SDS011;57641;51.416;5.506;2023-01-24T01:31:27;17.40;;;8.30;;
70247;SDS011;57641;51.416;5.506;2023-01-24T01:33:54;17.58;;;8.18;;
70247;SDS011;57641;51.416;5.506;2023-01-24T01:36:19;17.40;;;8.57;;
70247;SDS011;57641;51.416;5.506;2023-01-24T01:38:45;19.63;;;9.38;;
70247;SDS011;57641;51.416;5.506;2023-01-24T01:41:13;17.90;;;9.52;;
70247;SDS011;57641;51.416;5.506;2023-01-24T01:43:41;20.67;;;8.93;;
70247;SDS011;57641;51.416;5.506;2023-01-24T01:46:28;18.50;;;9.02;;
70247;SDS011;57641;51.416;5.506;2023-01-24T01:49:02;16.15;;;8.82;;
70247;SDS011;57641;51.416;5.506;2023-01-24T01:52:16;16.45;;;8.15;;
70247;SDS011;57641;51.416;5.506;2023-01-24T01:54:34;16.05;;;8.40;;
70247;SDS011;57641;51.416;5.506;2023-01-24T01:57:05;20.23;;;8.77;;
70247;SDS011;57641;51.416;5.506;2023-01-24T01:59:41;22.42;;;9.55;;
70247;SDS011;57641;51.416;5.506;2023-01-24T02:02:12;19.45;;;9.15;;
70247;SDS011;57641;51.416;5.506;2023-01-24T02:04:39;20.13;;;9.57;;
70247;SDS011;57641;51.416;5.506;2023-01-24T02:12:38;21.30;;;10.02;;
70247;SDS011;57641;51.416;5.506;2023-01-24T02:15:18;19.75;;;9.75;;
70247;SDS011;57641;51.416;5.506;2023-01-24T02:18:04;18.85;;;9.38;;
70247;SDS011;57641;51.416;5.506;2023-01-24T02:20:38;21.63;;;10.43;;
70247;SDS011;57641;51.416;5.506;2023-01-24T02:26:45;21.77;;;10.20;;
70247;SDS011;57641;51.416;5.506;2023-01-24T02:29:07;20.42;;;9.70;;
70247;SDS011;57641;51.416;5.506;2023-01-24T02:31:53;19.80;;;10.05;;
70247;SDS011;57641;51.416;5.506;2023-01-24T02:34:26;21.00;;;9.75;;
70247;SDS011;57641;51.416;5.506;2023-01-24T02:36:55;17.25;;;9.20;;
70247;SDS011;57641;51.416;5.506;2023-01-24T02:39:26;19.85;;;9.63;;
70247;SDS011;57641;51.416;5.506;2023-01-24T02:41:57;20.35;;;9.85;;
70247;SDS011;57641;51.416;5.506;2023-01-24T02:44:36;17.65;;;8.23;;
70247;SDS011;57641;51.416;5.506;2023-01-24T02:47:11;15.68;;;8.77;;
70247;SDS011;57641;51.416;5.506;2023-01-24T02:49:37;19.67;;;10.10;;
70247;SDS011;57641;51.416;5.506;2023-01-24T02:52:03;17.80;;;8.85;;
70247;SDS011;57641;51.416;5.506;2023-01-24T02:54:47;21.13;;;11.05;;
70247;SDS011;57641;51.416;5.506;2023-01-24T02:57:13;18.65;;;9.43;;
70247;SDS011;57641;51.416;5.506;2023-01-24T02:59:57;19.23;;;9.55;;
70247;SDS011;57641;51.416;5.506;2023-01-24T03:02:22;21.80;;;10.23;;
70247;SDS011;57641;51.416;5.506;2023-01-24T03:04:48;21.77;;;11.23;;
70247;SDS011;57641;51.416;5.506;2023-01-24T03:07:15;20.20;;;10.40;;
70247;SDS011;57641;51.416;5.506;2023-01-24T03:09:41;20.50;;;10.23;;
70247;SDS011;57641;51.416;5.506;2023-01-24T03:12:13;20.48;;;9.85;;
70247;SDS011;57641;51.416;5.506;2023-01-24T03:14:57;21.23;;;10.35;;
70247;SDS011;57641;51.416;5.506;2023-01-24T03:17:43;21.02;;;9.05;;
70247;SDS011;57641;51.416;5.506;2023-01-24T03:20:30;21.63;;;10.52;;
70247;SDS011;57641;51.416;5.506;2023-01-24T03:23:14;21.00;;;10.70;;
70247;SDS011;57641;51.416;5.506;2023-01-24T03:25:59;18.27;;;9.10;;
70247;SDS011;57641;51.416;5.506;2023-01-24T03:28:44;21.13;;;9.40;;
70247;SDS011;57641;51.416;5.506;2023-01-24T03:31:28;19.80;;;10.40;;
70247;SDS011;57641;51.416;5.506;2023-01-24T03:34:13;21.15;;;10.00;;
70247;SDS011;57641;51.416;5.506;2023-01-24T03:37:01;18.55;;;8.88;;
70247;SDS011;57641;51.416;5.506;2023-01-24T03:39:27;22.48;;;11.23;;
70247;SDS011;57641;51.416;5.506;2023-01-24T03:42:12;21.13;;;10.60;;
70247;SDS011;57641;51.416;5.506;2023-01-24T03:44:37;19.10;;;9.57;;
70247;SDS011;57641;51.416;5.506;2023-01-24T03:47:06;23.17;;;11.93;;
70247;SDS011;57641;51.416;5.506;2023-01-24T03:49:31;21.17;;;11.32;;
70247;SDS011;57641;51.416;5.506;2023-01-24T03:52:16;20.83;;;10.80;;
70247;SDS011;57641;51.416;5.506;2023-01-24T03:54:57;22.30;;;11.13;;
70247;SDS011;57641;51.416;5.506;2023-01-24T03:57:24;25.45;;;12.65;;
70247;SDS011;57641;51.416;5.506;2023-01-24T03:59:50;21.20;;;10.45;;
70247;SDS011;57641;51.416;5.506;2023-01-24T04:02:16;24.75;;;12.15;;
70247;SDS011;57641;51.416;5.506;2023-01-24T04:04:46;21.40;;;10.65;;
70247;SDS011;57641;51.416;5.506;2023-01-24T04:07:31;24.10;;;11.55;;
70247;SDS011;57641;51.416;5.506;2023-01-24T04:09:57;22.92;;;11.65;;
70247;SDS011;57641;51.416;5.506;2023-01-24T04:12:24;23.65;;;10.73;;
70247;SDS011;57641;51.416;5.506;2023-01-24T04:14:51;22.58;;;11.80;;
70247;SDS011;57641;51.416;5.506;2023-01-24T04:17:17;21.10;;;10.95;;
70247;SDS011;57641;51.416;5.506;2023-01-24T04:19:42;26.15;;;12.85;;
70247;SDS011;57641;51.416;5.506;2023-01-24T04:22:08;23.88;;;11.77;;
70247;SDS011;57641;51.416;5.506;2023-01-24T04:24:34;26.35;;;13.20;;
70247;SDS011;57641;51.416;5.506;2023-01-24T04:27:02;30.55;;;13.43;;
70247;SDS011;57641;51.416;5.506;2023-01-24T04:29:28;25.42;;;12.23;;
70247;SDS011;57641;51.416;5.506;2023-01-24T04:31:54;22.83;;;11.32;;
70247;SDS011;57641;51.416;5.506;2023-01-24T04:34:22;24.23;;;12.52;;
70247;SDS011;57641;51.416;5.506;2023-01-24T04:36:48;23.50;;;11.90;;
70247;SDS011;57641;51.416;5.506;2023-01-24T04:39:14;23.15;;;11.27;;
70247;SDS011;57641;51.416;5.506;2023-01-24T04:41:39;23.00;;;10.50;;
70247;SDS011;57641;51.416;5.506;2023-01-24T04:44:06;25.40;;;12.40;;
70247;SDS011;57641;51.416;5.506;2023-01-24T04:46:32;22.55;;;11.00;;
70247;SDS011;57641;51.416;5.506;2023-01-24T04:48:57;22.95;;;11.50;;
70247;SDS011;57641;51.416;5.506;2023-01-24T04:51:23;23.10;;;11.90;;
70247;SDS011;57641;51.416;5.506;2023-01-24T04:54:10;21.60;;;11.57;;
70247;SDS011;57641;51.416;5.506;2023-01-24T04:56:36;22.70;;;11.27;;
70247;SDS011;57641;51.416;5.506;2023-01-24T04:59:01;21.13;;;11.07;;
70247;SDS011;57641;51.416;5.506;2023-01-24T05:01:28;26.73;;;13.13;;
70247;SDS011;57641;51.416;5.506;2023-01-24T05:03:53;22.13;;;10.98;;
70247;SDS011;57641;51.416;5.506;2023-01-24T05:06:27;21.25;;;10.23;;
70247;SDS011;57641;51.416;5.506;2023-01-24T05:08:55;19.30;;;9.27;;
70247;SDS011;57641;51.416;5.506;2023-01-24T05:11:22;22.70;;;11.70;;
70247;SDS011;57641;51.416;5.506;2023-01-24T05:13:48;18.13;;;10.50;;
70247;SDS011;57641;51.416;5.506;2023-01-24T05:16:15;18.90;;;10.15;;
70247;SDS011;57641;51.416;5.506;2023-01-24T05:18:41;25.60;;;12.45;;
70247;SDS011;57641;51.416;5.506;2023-01-24T05:21:10;21.75;;;12.02;;
70247;SDS011;57641;51.416;5.506;2023-01-24T05:23:38;23.23;;;11.52;;
70247;SDS011;57641;51.416;5.506;2023-01-24T05:26:04;22.33;;;12.50;;
70247;SDS011;57641;51.416;5.506;2023-01-24T05:28:30;24.90;;;13.48;;
70247;SDS011;57641;51.416;5.506;2023-01-24T05:31:00;23.73;;;11.82;;
70247;SDS011;57641;51.416;5.506;2023-01-24T05:33:30;23.92;;;12.13;;
70247;SDS011;57641;51.416;5.506;2023-01-24T05:35:56;24.00;;;11.75;;
70247;SDS011;57641;51.416;5.506;2023-01-24T05:38:24;21.17;;;11.15;;
70247;SDS011;57641;51.416;5.506;2023-01-24T05:40:49;23.63;;;11.23;;
70247;SDS011;57641;51.416;5.506;2023-01-24T05:43:15;25.52;;;12.20;;
70247;SDS011;57641;51.416;5.506;2023-01-24T05:45:40;22.35;;;11.07;;
70247;SDS011;57641;51.416;5.506;2023-01-24T05:48:06;24.33;;;12.15;;
70247;SDS011;57641;51.416;5.506;2023-01-24T05:50:31;23.17;;;11.55;;
70247;SDS011;57641;51.416;5.506;2023-01-24T05:52:57;25.20;;;12.02;;
70247;SDS011;57641;51.416;5.506;2023-01-24T05:55:23;24.55;;;11.75;;
70247;SDS011;57641;51.416;5.506;2023-01-24T05:57:48;25.70;;;12.27;;
70247;SDS011;57641;51.416;5.506;2023-01-24T06:00:14;21.33;;;10.20;;
70247;SDS011;57641;51.416;5.506;2023-01-24T06:02:40;22.67;;;12.13;;
70247;SDS011;57641;51.416;5.506;2023-01-24T06:05:06;24.42;;;12.05;;
70247;SDS011;57641;51.416;5.506;2023-01-24T06:07:32;25.75;;;12.65;;
70247;SDS011;57641;51.416;5.506;2023-01-24T06:09:58;25.23;;;11.73;;
70247;SDS011;57641;51.416;5.506;2023-01-24T06:12:24;23.50;;;11.75;;
70247;SDS011;57641;51.416;5.506;2023-01-24T06:14:49;19.83;;;11.23;;
70247;SDS011;57641;51.416;5.506;2023-01-24T06:17:15;22.95;;;11.63;;
70247;SDS011;57641;51.416;5.506;2023-01-24T06:19:40;21.35;;;10.75;;
70247;SDS011;57641;51.416;5.506;2023-01-24T06:22:23;25.13;;;12.38;;
70247;SDS011;57641;51.416;5.506;2023-01-24T06:24:55;26.35;;;11.82;;
70247;SDS011;57641;51.416;5.506;2023-01-24T06:27:21;20.58;;;10.82;;
70247;SDS011;57641;51.416;5.506;2023-01-24T06:29:47;22.13;;;11.05;;
70247;SDS011;57641;51.416;5.506;2023-01-24T06:32:27;24.23;;;11.95;;
70247;SDS011;57641;51.416;5.506;2023-01-24T06:37:59;23.73;;;10.95;;
70247;SDS011;57641;51.416;5.506;2023-01-24T06:40:25;22.88;;;10.95;;
70247;SDS011;57641;51.416;5.506;2023-01-24T06:42:51;23.70;;;10.95;;
70247;SDS011;57641;51.416;5.506;2023-01-24T06:45:18;21.85;;;10.55;;
70247;SDS011;57641;51.416;5.506;2023-01-24T06:47:45;22.27;;;11.00;;
70247;SDS011;57641;51.416;5.506;2023-01-24T06:50:17;20.45;;;9.13;;
70247;SDS011;57641;51.416;5.506;2023-01-24T06:52:46;18.88;;;9.43;;
70247;SDS011;57641;51.416;5.506;2023-01-24T06:55:13;18.45;;;9.00;;
70247;SDS011;57641;51.416;5.506;2023-01-24T06:57:39;19.35;;;9.10;;
70247;SDS011;57641;51.416;5.506;2023-01-24T07:00:06;20.67;;;10.23;;
70247;SDS011;57641;51.416;5.506;2023-01-24T07:02:33;19.92;;;9.52;;
70247;SDS011;57641;51.416;5.506;2023-01-24T07:04:59;18.58;;;9.55;;
70247;SDS011;57641;51.416;5.506;2023-01-24T07:07:24;18.80;;;9.75;;
70247;SDS011;57641;51.416;5.506;2023-01-24T07:09:50;20.83;;;10.02;;
70247;SDS011;57641;51.416;5.506;2023-01-24T07:12:15;22.67;;;10.23;;
70247;SDS011;57641;51.416;5.506;2023-01-24T07:14:41;22.88;;;10.88;;
70247;SDS011;57641;51.416;5.506;2023-01-24T07:17:07;22.00;;;10.73;;
70247;SDS011;57641;51.416;5.506;2023-01-24T07:19:33;20.48;;;9.20;;
70247;SDS011;57641;51.416;5.506;2023-01-24T07:21:59;16.08;;;8.10;;
70247;SDS011;57641;51.416;5.506;2023-01-24T07:24:26;19.40;;;9.52;;
70247;SDS011;57641;51.416;5.506;2023-01-24T07:26:54;23.35;;;10.95;;
70247;SDS011;57641;51.416;5.506;2023-01-24T07:29:20;19.45;;;9.48;;
70247;SDS011;57641;51.416;5.506;2023-01-24T07:31:47;20.40;;;9.82;;
70247;SDS011;57641;51.416;5.506;2023-01-24T07:34:16;19.35;;;9.07;;
70247;SDS011;57641;51.416;5.506;2023-01-24T07:36:44;20.77;;;9.77;;
70247;SDS011;57641;51.416;5.506;2023-01-24T07:39:11;18.42;;;9.13;;
70247;SDS011;57641;51.416;5.506;2023-01-24T07:41:39;17.33;;;7.90;;
70247;SDS011;57641;51.416;5.506;2023-01-24T07:44:09;17.17;;;8.90;;
70247;SDS011;57641;51.416;5.506;2023-01-24T07:46:35;18.52;;;9.13;;
70247;SDS011;57641;51.416;5.506;2023-01-24T07:49:02;19.05;;;9.13;;
70247;SDS011;57641;51.416;5.506;2023-01-24T07:51:28;20.17;;;9.50;;
70247;SDS011;57641;51.416;5.506;2023-01-24T07:53:53;20.00;;;9.68;;
70247;SDS011;57641;51.416;5.506;2023-01-24T07:56:19;19.85;;;8.95;;
70247;SDS011;57641;51.416;5.506;2023-01-24T07:58:45;19.05;;;9.15;;
70247;SDS011;57641;51.416;5.506;2023-01-24T08:01:17;19.30;;;9.40;;
70247;SDS011;57641;51.416;5.506;2023-01-24T08:03:43;20.50;;;10.07;;
70247;SDS011;57641;51.416;5.506;2023-01-24T08:06:10;20.10;;;9.80;;
70247;SDS011;57641;51.416;5.506;2023-01-24T08:08:36;18.33;;;8.73;;
70247;SDS011;57641;51.416;5.506;2023-01-24T08:11:01;19.42;;;8.68;;
70247;SDS011;57641;51.416;5.506;2023-01-24T08:13:27;16.17;;;8.25;;
70247;SDS011;57641;51.416;5.506;2023-01-24T08:15:52;16.42;;;8.70;;
70247;SDS011;57641;51.416;5.506;2023-01-24T08:18:18;20.92;;;9.43;;
70247;SDS011;57641;51.416;5.506;2023-01-24T08:20:43;20.35;;;8.45;;
70247;SDS011;57641;51.416;5.506;2023-01-24T08:23:09;18.02;;;8.27;;
70247;SDS011;57641;51.416;5.506;2023-01-24T08:25:34;16.10;;;8.35;;
70247;SDS011;57641;51.416;5.506;2023-01-24T08:28:00;20.48;;;9.70;;
70247;SDS011;57641;51.416;5.506;2023-01-24T08:30:25;16.45;;;7.70;;
70247;SDS011;57641;51.416;5.506;2023-01-24T08:33:03;16.15;;;8.20;;
70247;SDS011;57641;51.416;5.506;2023-01-24T08:35:30;20.10;;;9.77;;
70247;SDS011;57641;51.416;5.506;2023-01-24T08:37:57;19.08;;;9.05;;
70247;SDS011;57641;51.416;5.506;2023-01-24T08:40:24;15.60;;;7.50;;
70247;SDS011;57641;51.416;5.506;2023-01-24T08:42:50;18.63;;;8.88;;
70247;SDS011;57641;51.416;5.506;2023-01-24T08:45:16;19.85;;;9.10;;
70247;SDS011;57641;51.416;5.506;2023-01-24T08:47:42;19.83;;;8.98;;
70247;SDS011;57641;51.416;5.506;2023-01-24T08:50:15;16.23;;;8.63;;
70247;SDS011;57641;51.416;5.506;2023-01-24T08:52:45;19.70;;;9.05;;
70247;SDS011;57641;51.416;5.506;2023-01-24T08:55:12;22.00;;;9.80;;
70247;SDS011;57641;51.416;5.506;2023-01-24T08:57:38;18.27;;;9.35;;
70247;SDS011;57641;51.416;5.506;2023-01-24T09:00:03;18.15;;;9.05;;
70247;SDS011;57641;51.416;5.506;2023-01-24T09:02:29;20.83;;;10.07;;
70247;SDS011;57641;51.416;5.506;2023-01-24T09:04:57;16.70;;;8.18;;
70247;SDS011;57641;51.416;5.506;2023-01-24T09:07:23;21.33;;;9.85;;
70247;SDS011;57641;51.416;5.506;2023-01-24T09:09:49;17.63;;;8.43;;
70247;SDS011;57641;51.416;5.506;2023-01-24T09:12:15;17.77;;;9.05;;
70247;SDS011;57641;51.416;5.506;2023-01-24T09:14:40;22.02;;;9.05;;
70247;SDS011;57641;51.416;5.506;2023-01-24T09:17:06;21.40;;;9.38;;
70247;SDS011;57641;51.416;5.506;2023-01-24T09:19:31;19.70;;;8.88;;
70247;SDS011;57641;51.416;5.506;2023-01-24T09:21:57;20.30;;;9.30;;
70247;SDS011;57641;51.416;5.506;2023-01-24T09:24:22;16.77;;;8.05;;
70247;SDS011;57641;51.416;5.506;2023-01-24T09:26:48;20.98;;;9.88;;
70247;SDS011;57641;51.416;5.506;2023-01-24T09:29:14;18.92;;;9.85;;
70247;SDS011;57641;51.416;5.506;2023-01-24T09:31:40;18.92;;;8.70;;
70247;SDS011;57641;51.416;5.506;2023-01-24T09:34:06;19.75;;;9.05;;
70247;SDS011;57641;51.416;5.506;2023-01-24T09:36:31;18.70;;;9.32;;
70247;SDS011;57641;51.416;5.506;2023-01-24T09:38:57;17.65;;;9.43;;
70247;SDS011;57641;51.416;5.506;2023-01-24T09:44:44;16.92;;;8.75;;
70247;SDS011;57641;51.416;5.506;2023-01-24T09:52:20;19.40;;;8.80;;
70247;SDS011;57641;51.416;5.506;2023-01-24T10:00:16;16.10;;;8.90;;
70247;SDS011;57641;51.416;5.506;2023-01-24T10:02:47;20.70;;;8.82;;
70247;SDS011;57641;51.416;5.506;2023-01-24T10:05:13;16.60;;;8.15;;
70247;SDS011;57641;51.416;5.506;2023-01-24T10:21:59;18.65;;;8.77;;
70247;SDS011;57641;51.416;5.506;2023-01-24T10:27:53;16.98;;;7.80;;
70247;SDS011;57641;51.416;5.506;2023-01-24T10:30:41;19.20;;;8.07;;
70247;SDS011;57641;51.416;5.506;2023-01-24T10:33:16;19.23;;;8.85;;
70247;SDS011;57641;51.416;5.506;2023-01-24T10:38:24;20.23;;;9.40;;
70247;SDS011;57641;51.416;5.506;2023-01-24T10:40:55;18.88;;;9.48;;
70247;SDS011;57641;51.416;5.506;2023-01-24T10:43:26;18.52;;;9.40;;
70247;SDS011;57641;51.416;5.506;2023-01-24T10:48:37;16.00;;;8.45;;
70247;SDS011;57641;51.416;5.506;2023-01-24T10:53:43;19.42;;;9.18;;
70247;SDS011;57641;51.416;5.506;2023-01-24T10:56:10;19.00;;;9.07;;
70247;SDS011;57641;51.416;5.506;2023-01-24T10:59:11;14.95;;;7.88;;
70247;SDS011;57641;51.416;5.506;2023-01-24T11:01:33;17.02;;;9.35;;
70247;SDS011;57641;51.416;5.506;2023-01-24T11:04:13;17.17;;;8.55;;
70247;SDS011;57641;51.416;5.506;2023-01-24T11:06:49;16.17;;;7.93;;
70247;SDS011;57641;51.416;5.506;2023-01-24T11:09:17;17.00;;;9.48;;
70247;SDS011;57641;51.416;5.506;2023-01-24T11:11:50;19.20;;;9.05;;
70247;SDS011;57641;51.416;5.506;2023-01-24T11:14:21;18.90;;;9.57;;
70247;SDS011;57641;51.416;5.506;2023-01-24T11:16:53;19.80;;;9.05;;
70247;SDS011;57641;51.416;5.506;2023-01-24T11:19:33;17.25;;;8.05;;
70247;SDS011;57641;51.416;5.506;2023-01-24T11:22:25;17.88;;;8.57;;
70247;SDS011;57641;51.416;5.506;2023-01-24T11:24:55;16.50;;;8.73;;
70247;SDS011;57641;51.416;5.506;2023-01-24T11:27:23;15.85;;;9.20;;
70247;SDS011;57641;51.416;5.506;2023-01-24T11:30:04;16.33;;;8.60;;
70247;SDS011;57641;51.416;5.506;2023-01-24T11:32:51;17.38;;;8.90;;
70247;SDS011;57641;51.416;5.506;2023-01-24T11:35:27;17.85;;;8.38;;
70247;SDS011;57641;51.416;5.506;2023-01-24T11:40:52;16.42;;;8.43;;
70247;SDS011;57641;51.416;5.506;2023-01-24T11:51:37;15.32;;;7.95;;
70247;SDS011;57641;51.416;5.506;2023-01-24T11:54:13;14.73;;;7.97;;
70247;SDS011;57641;51.416;5.506;2023-01-24T12:08:28;21.60;;;9.70;;
70247;SDS011;57641;51.416;5.506;2023-01-24T12:13:39;20.30;;;9.57;;
70247;SDS011;57641;51.416;5.506;2023-01-24T12:21:58;17.20;;;9.43;;
70247;SDS011;57641;51.416;5.506;2023-01-24T12:24:35;20.83;;;10.90;;
70247;SDS011;57641;51.416;5.506;2023-01-24T12:27:11;17.75;;;9.75;;
70247;SDS011;57641;51.416;5.506;2023-01-24T12:32:42;22.13;;;11.35;;
70247;SDS011;57641;51.416;5.506;2023-01-24T12:35:25;19.45;;;11.10;;
70247;SDS011;57641;51.416;5.506;2023-01-24T12:40:49;17.00;;;9.82;;
70247;SDS011;57641;51.416;5.506;2023-01-24T12:43:24;19.52;;;9.90;;
70247;SDS011;57641;51.416;5.506;2023-01-24T12:46:10;22.48;;;11.40;;
70247;SDS011;57641;51.416;5.506;2023-01-24T12:48:47;20.42;;;11.30;;
70247;SDS011;57641;51.416;5.506;2023-01-24T12:51:26;19.63;;;11.00;;
70247;SDS011;57641;51.416;5.506;2023-01-24T12:56:44;17.35;;;9.60;;
70247;SDS011;57641;51.416;5.506;2023-01-24T12:59:21;21.13;;;9.90;;
70247;SDS011;57641;51.416;5.506;2023-01-24T13:04:30;19.15;;;10.20;;
70247;SDS011;57641;51.416;5.506;2023-01-24T13:10:21;19.45;;;10.63;;
70247;SDS011;57641;51.416;5.506;2023-01-24T13:12:59;20.17;;;11.68;;
70247;SDS011;57641;51.416;5.506;2023-01-24T13:21:00;19.77;;;11.25;;
70247;SDS011;57641;51.416;5.506;2023-01-24T13:23:45;21.48;;;11.45;;
70247;SDS011;57641;51.416;5.506;2023-01-24T13:26:46;21.67;;;10.55;;
70247;SDS011;57641;51.416;5.506;2023-01-24T13:32:13;19.02;;;10.45;;
70247;SDS011;57641;51.416;5.506;2023-01-24T13:34:49;19.75;;;10.38;;
70247;SDS011;57641;51.416;5.506;2023-01-24T13:37:22;18.00;;;10.25;;
70247;SDS011;57641;51.416;5.506;2023-01-24T13:39:58;22.00;;;10.95;;
70247;SDS011;57641;51.416;5.506;2023-01-24T13:42:45;20.30;;;10.85;;
70247;SDS011;57641;51.416;5.506;2023-01-24T13:47:50;17.80;;;10.25;;
70247;SDS011;57641;51.416;5.506;2023-01-24T13:50:22;19.05;;;11.32;;
70247;SDS011;57641;51.416;5.506;2023-01-24T13:52:49;18.75;;;10.60;;
70247;SDS011;57641;51.416;5.506;2023-01-24T14:03:19;19.27;;;10.52;;
70247;SDS011;57641;51.416;5.506;2023-01-24T14:21:34;17.42;;;10.57;;
70247;SDS011;57641;51.416;5.506;2023-01-24T14:24:25;21.30;;;11.30;;
70247;SDS011;57641;51.416;5.506;2023-01-24T14:26:58;21.60;;;11.05;;
70247;SDS011;57641;51.416;5.506;2023-01-24T14:29:46;19.73;;;11.25;;
70247;SDS011;57641;51.416;5.506;2023-01-24T14:32:18;21.25;;;10.82;;
70247;SDS011;57641;51.416;5.506;2023-01-24T14:34:51;18.00;;;10.23;;
70247;SDS011;57641;51.416;5.506;2023-01-24T14:37:30;19.00;;;10.68;;
70247;SDS011;57641;51.416;5.506;2023-01-24T14:40:10;18.50;;;10.30;;
70247;SDS011;57641;51.416;5.506;2023-01-24T14:42:43;18.63;;;10.45;;
70247;SDS011;57641;51.416;5.506;2023-01-24T14:45:13;20.70;;;10.68;;
70247;SDS011;57641;51.416;5.506;2023-01-24T14:47:47;19.17;;;11.68;;
70247;SDS011;57641;51.416;5.506;2023-01-24T14:50:19;15.38;;;9.32;;
70247;SDS011;57641;51.416;5.506;2023-01-24T14:52:45;21.55;;;11.15;;
70247;SDS011;57641;51.416;5.506;2023-01-24T14:57:44;19.88;;;11.80;;
70247;SDS011;57641;51.416;5.506;2023-01-24T15:02:52;19.67;;;10.50;;
70247;SDS011;57641;51.416;5.506;2023-01-24T15:05:41;21.77;;;11.52;;
70247;SDS011;57641;51.416;5.506;2023-01-24T15:08:15;21.15;;;11.57;;
70247;SDS011;57641;51.416;5.506;2023-01-24T15:10:44;20.58;;;11.35;;
70247;SDS011;57641;51.416;5.506;2023-01-24T15:13:49;16.67;;;9.90;;
70247;SDS011;57641;51.416;5.506;2023-01-24T15:16:15;19.60;;;10.50;;
70247;SDS011;57641;51.416;5.506;2023-01-24T15:18:51;17.20;;;10.13;;
70247;SDS011;57641;51.416;5.506;2023-01-24T15:21:40;18.38;;;11.05;;
70247;SDS011;57641;51.416;5.506;2023-01-24T15:24:24;19.80;;;10.38;;
70247;SDS011;57641;51.416;5.506;2023-01-24T15:26:50;17.70;;;9.93;;
70247;SDS011;57641;51.416;5.506;2023-01-24T15:32:17;20.70;;;11.02;;
70247;SDS011;57641;51.416;5.506;2023-01-24T15:34:46;20.83;;;10.43;;
70247;SDS011;57641;51.416;5.506;2023-01-24T15:37:12;17.48;;;9.90;;
70247;SDS011;57641;51.416;5.506;2023-01-24T15:39:40;15.77;;;9.38;;
70247;SDS011;57641;51.416;5.506;2023-01-24T15:42:16;17.77;;;9.48;;
70247;SDS011;57641;51.416;5.506;2023-01-24T15:45:02;18.60;;;9.82;;
70247;SDS011;57641;51.416;5.506;2023-01-24T15:47:30;18.52;;;10.45;;
70247;SDS011;57641;51.416;5.506;2023-01-24T15:50:25;16.83;;;10.35;;
70247;SDS011;57641;51.416;5.506;2023-01-24T15:53:11;15.60;;;9.40;;
70247;SDS011;57641;51.416;5.506;2023-01-24T15:55:42;21.40;;;11.43;;
70247;SDS011;57641;51.416;5.506;2023-01-24T15:58:08;19.45;;;10.88;;
70247;SDS011;57641;51.416;5.506;2023-01-24T16:00:35;21.23;;;11.57;;
70247;SDS011;57641;51.416;5.506;2023-01-24T16:03:01;18.90;;;11.10;;
70247;SDS011;57641;51.416;5.506;2023-01-24T16:05:27;20.20;;;10.60;;
70247;SDS011;57641;51.416;5.506;2023-01-24T16:08:01;19.23;;;11.70;;
70247;SDS011;57641;51.416;5.506;2023-01-24T16:10:33;18.50;;;10.75;;
70247;SDS011;57641;51.416;5.506;2023-01-24T16:13:01;20.92;;;12.18;;
70247;SDS011;57641;51.416;5.506;2023-01-24T16:15:30;20.20;;;11.05;;
70247;SDS011;57641;51.416;5.506;2023-01-24T16:17:56;19.60;;;11.88;;
70247;SDS011;57641;51.416;5.506;2023-01-24T16:20:23;19.73;;;11.77;;
70247;SDS011;57641;51.416;5.506;2023-01-24T16:22:52;17.58;;;11.27;;
70247;SDS011;57641;51.416;5.506;2023-01-24T16:25:18;19.60;;;11.50;;
70247;SDS011;57641;51.416;5.506;2023-01-24T16:27:46;22.20;;;11.93;;
70247;SDS011;57641;51.416;5.506;2023-01-24T16:30:17;22.13;;;12.18;;
70247;SDS011;57641;51.416;5.506;2023-01-24T16:32:44;20.20;;;12.48;;
70247;SDS011;57641;51.416;5.506;2023-01-24T16:35:10;21.25;;;12.80;;
70247;SDS011;57641;51.416;5.506;2023-01-24T16:37:36;22.50;;;13.10;;
70247;SDS011;57641;51.416;5.506;2023-01-24T16:40:02;22.73;;;11.98;;
70247;SDS011;57641;51.416;5.506;2023-01-24T16:42:28;22.88;;;13.05;;
70247;SDS011;57641;51.416;5.506;2023-01-24T16:44:57;21.75;;;12.00;;
70247;SDS011;57641;51.416;5.506;2023-01-24T16:47:24;28.00;;;15.27;;
70247;SDS011;57641;51.416;5.506;2023-01-24T16:49:53;26.73;;;15.00;;
70247;SDS011;57641;51.416;5.506;2023-01-24T16:52:20;31.73;;;16.60;;
70247;SDS011;57641;51.416;5.506;2023-01-24T16:54:48;30.48;;;16.73;;
70247;SDS011;57641;51.416;5.506;2023-01-24T16:57:21;33.55;;;16.70;;
70247;SDS011;57641;51.416;5.506;2023-01-24T16:59:47;28.58;;;15.88;;
70247;SDS011;57641;51.416;5.506;2023-01-24T17:02:13;30.88;;;15.73;;
70247;SDS011;57641;51.416;5.506;2023-01-24T17:04:42;31.63;;;15.82;;
70247;SDS011;57641;51.416;5.506;2023-01-24T17:07:09;28.17;;;15.48;;